Time;durP1;ratioP1;P1;durP2;ratioP2;P2;SDS_P1;SDS_P2;PMS_P1;PMS_P2;Temp;Humidity;BMP_temperature;BMP_pressure;BME280_temperature;BME280_humidity;BME280_pressure;Samples;Min_cycle;Max_cycle;Signal;HPM_P1;HPM_P2
2021/03/08 00:00:01;;;;;;;11.73;7.63;;;;;;;2.25;61.14;100234.34;4951270;28;20035;-70
2021/03/08 00:02:26;;;;;;;10.77;7.75;;;;;;;2.21;61.67;100237.00;4951048;28;20110;-70
2021/03/08 00:04:52;;;;;;;9.85;8.30;;;;;;;2.16;61.35;100239.63;4950355;28;20043;-69
2021/03/08 00:07:17;;;;;;;11.25;7.50;;;;;;;2.08;61.45;100239.69;4951009;28;20090;-69
2021/03/08 00:09:42;;;;;;;13.77;8.93;;;;;;;2.07;61.83;100243.16;4950366;28;20031;-69
2021/03/08 00:12:09;;;;;;;13.88;9.05;;;;;;;2.00;61.95;100238.88;4954719;28;20039;-69
2021/03/08 00:14:34;;;;;;;11.50;8.25;;;;;;;1.93;61.98;100234.59;4954922;29;20051;-71
2021/03/08 00:17:01;;;;;;;11.15;7.43;;;;;;;1.92;61.93;100243.28;4954382;28;20027;-69
2021/03/08 00:19:26;;;;;;;12.43;8.07;;;;;;;1.86;62.56;100238.97;4954562;28;20035;-71
2021/03/08 00:21:52;;;;;;;13.77;9.13;;;;;;;1.80;62.88;100239.03;4954983;28;20403;-70
2021/03/08 00:24:17;;;;;;;13.93;7.90;;;;;;;1.73;62.79;100249.47;4954263;29;20041;-69
2021/03/08 00:26:43;;;;;;;11.65;7.90;;;;;;;1.68;62.56;100244.28;4954535;28;20085;-69
2021/03/08 00:29:08;;;;;;;11.90;8.50;;;;;;;1.65;62.97;100250.38;4937281;28;20380;-69
2021/03/08 00:31:34;;;;;;;11.02;8.88;;;;;;;1.64;62.79;100245.16;4954144;28;20105;-69
2021/03/08 00:33:59;;;;;;;15.93;8.98;;;;;;;1.60;63.62;100241.75;4936958;28;20125;-69
2021/03/08 00:36:25;;;;;;;9.18;7.20;;;;;;;1.57;63.38;100241.72;4957688;28;20035;-70
2021/03/08 00:38:50;;;;;;;8.50;6.95;;;;;;;1.58;63.15;100242.63;4936200;28;20027;-69
2021/03/08 00:41:15;;;;;;;11.95;8.93;;;;;;;1.54;63.17;100246.09;4953077;28;20047;-69
2021/03/08 00:43:41;;;;;;;11.02;8.73;;;;;;;1.52;63.61;100246.09;4936548;29;20031;-69
2021/03/08 00:46:06;;;;;;;12.30;9.13;;;;;;;1.56;63.24;100239.16;4954089;29;20046;-69
2021/03/08 00:48:31;;;;;;;12.55;9.55;;;;;;;1.53;64.25;100242.63;4973283;28;20089;-70
2021/03/08 00:50:57;;;;;;;11.75;8.48;;;;;;;1.50;64.34;100245.22;4954988;28;20517;-70
2021/03/08 00:53:22;;;;;;;11.50;8.40;;;;;;;1.49;65.23;100243.50;4976014;28;20055;-69
2021/03/08 00:55:47;;;;;;;14.25;9.90;;;;;;;1.49;64.50;100244.38;4992681;28;20039;-68
2021/03/08 00:58:13;;;;;;;13.50;9.10;;;;;;;1.47;64.84;100243.50;4985102;28;20035;-67
2021/03/08 01:00:38;;;;;;;13.27;8.02;;;;;;;1.42;64.85;100247.88;4975467;28;20046;-70
2021/03/08 01:03:04;;;;;;;16.20;7.95;;;;;;;1.38;65.45;100242.69;4958918;28;20459;-70
2021/03/08 01:05:29;;;;;;;13.27;10.38;;;;;;;1.36;65.17;100247.91;4971802;28;20046;-67
2021/03/08 01:07:55;;;;;;;14.80;10.40;;;;;;;1.37;64.24;100247.03;4973634;28;20031;-69
2021/03/08 01:10:25;;;;;;;11.00;8.15;;;;;;;1.41;64.37;100247.88;4973332;28;20043;-67
2021/03/08 01:12:50;;;;;;;14.25;9.93;;;;;;;1.43;63.94;100248.75;4973725;28;20113;-68
2021/03/08 01:15:16;;;;;;;14.25;8.40;;;;;;;1.42;64.41;100236.63;4958272;28;20130;-67
2021/03/08 01:17:41;;;;;;;12.32;8.70;;;;;;;1.40;64.28;100235.75;4954426;28;20059;-69
2021/03/08 01:20:13;;;;;;;13.40;7.63;;;;;;;1.37;63.91;100244.44;4964056;28;20550;-70
2021/03/08 01:22:39;;;;;;;11.43;8.43;;;;;;;1.34;64.02;100241.84;4964319;28;20070;-70
2021/03/08 01:25:13;;;;;;;15.65;10.50;;;;;;;1.34;64.50;100247.03;4964596;28;20064;-70
2021/03/08 01:27:39;;;;;;;11.75;8.93;;;;;;;1.28;64.54;100242.75;4967242;28;20066;-69
2021/03/08 01:30:09;;;;;;;11.88;7.88;;;;;;;1.29;64.56;100244.47;4978084;28;20034;-69
2021/03/08 01:32:35;;;;;;;16.90;9.77;;;;;;;1.32;64.50;100241.00;4973587;28;20065;-68
2021/03/08 01:35:00;;;;;;;12.23;8.23;;;;;;;1.32;64.24;100238.38;4973198;28;20043;-69
2021/03/08 01:37:25;;;;;;;12.10;8.57;;;;;;;1.35;64.07;100240.09;4981017;28;20042;-71
2021/03/08 01:39:50;;;;;;;13.73;8.73;;;;;;;1.37;64.06;100236.63;4972936;28;20046;-68
2021/03/08 01:42:16;;;;;;;12.27;7.82;;;;;;;1.41;64.07;100237.50;4977942;28;20034;-69
2021/03/08 01:44:42;;;;;;;14.20;10.45;;;;;;;1.39;64.59;100232.31;4989385;28;20106;-70
2021/03/08 01:47:07;;;;;;;19.13;8.75;;;;;;;1.37;64.08;100239.22;4979842;28;20031;-69
2021/03/08 01:49:32;;;;;;;12.85;8.02;;;;;;;1.39;64.72;100229.69;4973796;28;20070;-69
2021/03/08 01:51:58;;;;;;;13.60;8.50;;;;;;;1.42;64.36;100229.69;4971889;28;20348;-69
2021/03/08 01:54:23;;;;;;;7.82;7.00;;;;;;;1.49;63.59;100236.56;4972395;28;20053;-69
2021/03/08 01:56:49;;;;;;;11.32;7.45;;;;;;;1.58;63.75;100233.06;4973633;28;20114;-69
2021/03/08 01:59:15;;;;;;;11.98;8.05;;;;;;;1.60;63.83;100235.66;4972183;28;20035;-69
2021/03/08 02:01:40;;;;;;;11.93;8.73;;;;;;;1.50;64.50;100225.34;4959346;28;20069;-69
2021/03/08 02:04:06;;;;;;;13.10;8.15;;;;;;;1.45;64.56;100221.91;4972588;28;20167;-70
2021/03/08 02:06:31;;;;;;;11.55;8.38;;;;;;;1.41;64.61;100225.38;4971765;28;20527;-69
2021/03/08 02:08:56;;;;;;;13.25;8.82;;;;;;;1.39;64.85;100216.72;4972355;28;20038;-70
2021/03/08 02:11:22;;;;;;;13.27;9.55;;;;;;;1.35;65.06;100209.78;4972187;28;20043;-70
2021/03/08 02:14:13;;;;;;;14.07;9.95;;;;;;;1.33;65.86;100218.47;4972182;28;20107;-68
2021/03/08 02:16:54;;;;;;;12.25;8.95;;;;;;;1.29;65.70;100218.50;4954148;28;20727;-70
2021/03/08 02:19:54;;;;;;;13.20;10.10;;;;;;;1.32;65.27;100208.97;4971387;28;20049;-70
2021/03/08 02:22:53;;;;;;;11.45;8.35;;;;;;;1.37;65.76;100199.41;4962584;28;20035;-69
2021/03/08 02:25:47;;;;;;;11.38;8.30;;;;;;;1.39;65.96;100195.94;4972075;28;20426;-70
2021/03/08 02:28:34;;;;;;;11.60;8.55;;;;;;;1.39;65.96;100200.28;4968560;28;20031;-70
2021/03/08 02:31:01;;;;;;;;;;;;;;;1.43;65.32;100200.25;4972055;28;20394;-70
2021/03/08 02:33:30;;;;;;;12.88;8.60;;;;;;;1.44;66.02;100199.38;4971264;28;19958;-70
2021/03/08 02:36:00;;;;;;;13.93;8.52;;;;;;;1.40;65.78;100191.59;4971939;28;20113;-70
2021/03/08 02:38:35;;;;;;;13.90;8.98;;;;;;;1.37;66.24;100197.66;4971521;28;20478;-70
2021/03/08 02:41:05;;;;;;;14.10;8.85;;;;;;;1.40;65.78;100204.59;4972065;28;20041;-70
2021/03/08 02:43:41;;;;;;;16.73;9.23;;;;;;;1.43;65.41;100202.84;4986700;28;20100;-70
2021/03/08 02:46:09;;;;;;;;;;;;;;;1.42;65.21;100202.84;4973200;28;20512;-70
2021/03/08 02:48:39;;;;;;;11.65;7.70;;;;;;;1.47;64.99;100209.72;4971570;28;19940;-70
2021/03/08 02:51:06;;;;;;;12.68;8.02;;;;;;;1.56;64.47;100197.59;4959071;28;20054;-70
2021/03/08 02:53:35;;;;;;;11.30;8.02;;;;;;;1.63;64.80;100200.13;4952615;28;20043;-70
2021/03/08 02:56:23;;;;;;;12.73;8.50;;;;;;;1.66;64.52;100197.50;4952986;29;20043;-70
2021/03/08 02:58:51;;;;;;;13.68;8.88;;;;;;;1.68;63.82;100200.09;4952553;29;20039;-70
2021/03/08 03:01:19;;;;;;;12.80;9.18;;;;;;;1.71;63.86;100200.09;4950891;29;20410;-70
2021/03/08 03:03:48;;;;;;;11.05;8.50;;;;;;;1.70;64.14;100195.78;4952041;29;20031;-70
2021/03/08 03:06:15;;;;;;;15.13;10.60;;;;;;;1.67;64.42;100187.97;4951777;29;20145;-70
2021/03/08 03:08:42;;;;;;;14.13;9.27;;;;;;;1.62;64.10;100190.59;4951375;29;20110;-70
2021/03/08 03:11:08;;;;;;;18.00;11.15;;;;;;;1.60;64.90;100194.97;4952089;29;20047;-70
2021/03/08 03:13:36;;;;;;;13.13;10.27;;;;;;;1.63;64.22;100187.13;4951786;29;20054;-69
2021/03/08 03:16:04;;;;;;;15.77;11.88;;;;;;;1.61;64.60;100190.63;4951748;29;20039;-69
2021/03/08 03:18:33;;;;;;;17.10;10.98;;;;;;;1.57;64.02;100188.91;4951945;29;20483;-70
2021/03/08 03:21:00;;;;;;;15.65;10.52;;;;;;;1.60;64.37;100194.97;4952470;29;20035;-71
2021/03/08 03:23:27;;;;;;;12.07;9.77;;;;;;;1.68;63.99;100184.50;4964140;28;20038;-70
2021/03/08 03:25:55;;;;;;;15.95;10.43;;;;;;;1.68;63.71;100187.13;4974201;28;20047;-70
2021/03/08 03:28:22;;;;;;;14.48;10.13;;;;;;;1.68;64.42;100184.50;4975549;28;20061;-70
2021/03/08 03:30:48;;;;;;;16.17;10.65;;;;;;;1.66;64.51;100179.31;4975019;28;20048;-70
2021/03/08 03:33:15;;;;;;;15.57;10.02;;;;;;;1.59;64.51;100192.34;4975066;28;20039;-70
2021/03/08 03:35:40;;;;;;;15.65;10.05;;;;;;;1.60;64.05;100189.75;4979024;28;20043;-70
2021/03/08 03:38:07;;;;;;;14.30;9.70;;;;;;;1.62;64.24;100184.53;4970558;28;20050;-70
2021/03/08 03:40:33;;;;;;;15.70;10.45;;;;;;;1.62;64.78;100188.00;4971186;28;20071;-70
2021/03/08 03:43:00;;;;;;;14.82;9.30;;;;;;;1.58;64.72;100186.31;4970560;28;20058;-70
2021/03/08 03:45:26;;;;;;;12.63;9.05;;;;;;;1.57;64.81;100199.31;4969576;28;20043;-70
2021/03/08 03:47:51;;;;;;;13.55;9.15;;;;;;;1.59;65.11;100195.81;4969892;28;20112;-70
2021/03/08 03:50:20;;;;;;;11.85;8.90;;;;;;;1.63;64.50;100199.28;4968225;28;20490;-70
2021/03/08 03:52:45;;;;;;;12.68;8.38;;;;;;;1.67;64.26;100203.56;4961258;28;20550;-69
2021/03/08 03:55:16;;;;;;;13.00;8.65;;;;;;;1.70;63.79;100206.16;4950900;28;20047;-69
2021/03/08 03:57:46;;;;;;;15.68;9.95;;;;;;;1.68;64.65;100197.50;4950626;28;20043;-69
2021/03/08 04:00:12;;;;;;;13.70;9.43;;;;;;;1.64;64.83;100201.00;4951070;28;20097;-69
2021/03/08 04:02:48;;;;;;;11.68;8.63;;;;;;;1.63;64.74;100205.34;4950981;28;20047;-69
2021/03/08 04:05:23;;;;;;;11.05;8.00;;;;;;;1.60;64.83;100205.34;4951336;28;20506;-69
2021/03/08 04:07:49;;;;;;;14.60;10.20;;;;;;;1.55;65.75;100207.13;4950794;28;20035;-71
2021/03/08 04:10:15;;;;;;;11.10;8.38;;;;;;;1.52;65.21;100201.91;4951082;28;20039;-70
2021/03/08 04:12:44;;;;;;;13.02;9.48;;;;;;;1.50;65.78;100204.53;4951124;29;20035;-71
2021/03/08 04:15:12;;;;;;;16.05;8.95;;;;;;;1.42;65.61;100211.50;4950426;28;20047;-70
2021/03/08 04:17:40;;;;;;;14.05;9.27;;;;;;;1.43;65.24;100212.38;4950268;28;20094;-70
2021/03/08 04:20:11;;;;;;;16.10;10.82;;;;;;;1.44;66.15;100212.34;4969745;28;20090;-70
2021/03/08 04:22:37;;;;;;;15.23;10.05;;;;;;;1.43;65.78;100213.25;4954916;28;20375;-70
2021/03/08 04:25:05;;;;;;;15.07;10.05;;;;;;;1.43;65.56;100223.63;4970038;28;20081;-70
2021/03/08 04:27:33;;;;;;;10.40;7.82;;;;;;;1.49;65.51;100222.72;4969194;28;20031;-70
2021/03/08 04:30:00;;;;;;;11.05;8.07;;;;;;;1.59;64.91;100223.53;4984693;28;20126;-69
2021/03/08 04:32:27;;;;;;;10.93;7.65;;;;;;;1.67;65.12;100232.16;4969756;28;20122;-69
2021/03/08 04:34:53;;;;;;;15.50;9.68;;;;;;;1.74;64.90;100233.84;4965559;28;20039;-70
2021/03/08 04:37:19;;;;;;;12.73;8.30;;;;;;;1.80;64.40;100236.41;4959180;28;20042;-70
2021/03/08 04:39:45;;;;;;;13.95;9.40;;;;;;;1.83;64.36;100238.13;4950853;28;20095;-70
2021/03/08 04:42:13;;;;;;;14.43;10.70;;;;;;;1.87;64.74;100232.03;4967919;28;20047;-69
2021/03/08 04:44:41;;;;;;;10.80;8.68;;;;;;;1.93;64.57;100237.19;4971685;28;20039;-70
2021/03/08 04:47:08;;;;;;;13.88;11.18;;;;;;;2.01;63.71;100227.59;4974227;28;20054;-71
2021/03/08 04:49:34;;;;;;;13.63;9.80;;;;;;;2.09;64.10;100237.94;4980722;28;20035;-70
2021/03/08 04:52:00;;;;;;;14.20;9.13;;;;;;;2.10;64.13;100242.28;4978066;28;20039;-71
2021/03/08 04:54:27;;;;;;;15.18;10.32;;;;;;;2.11;64.19;100237.06;4954304;28;20043;-70
2021/03/08 04:56:54;;;;;;;12.93;9.38;;;;;;;2.12;63.75;100230.13;4953091;28;20126;-70
2021/03/08 04:59:20;;;;;;;14.45;10.25;;;;;;;2.17;63.67;100238.75;4954248;28;20141;-69
2021/03/08 05:01:46;;;;;;;17.55;9.80;;;;;;;2.16;63.48;100229.22;4952498;28;20490;-70
2021/03/08 05:04:13;;;;;;;14.07;9.80;;;;;;;2.22;62.86;100231.78;4953812;28;20074;-70
2021/03/08 05:06:41;;;;;;;16.40;9.00;;;;;;;2.25;63.69;100231.75;4953782;28;20046;-71
2021/03/08 05:09:13;;;;;;;16.25;10.20;;;;;;;2.30;63.34;100231.72;4953995;28;20041;-70
2021/03/08 05:11:40;;;;;;;16.85;12.63;;;;;;;2.26;63.61;100230.88;4953886;29;20114;-70
2021/03/08 05:14:10;;;;;;;14.32;10.63;;;;;;;2.15;64.45;100237.91;4954115;29;20031;-70
2021/03/08 05:16:39;;;;;;;13.60;10.25;;;;;;;2.00;65.10;100235.44;4971102;28;20121;-71
2021/03/08 05:19:05;;;;;;;15.32;10.35;;;;;;;1.91;65.88;100234.59;4956658;28;20062;-69
2021/03/08 05:21:33;;;;;;;16.02;11.65;;;;;;;1.93;66.02;100242.41;4953514;28;20503;-70
2021/03/08 05:24:00;;;;;;;14.77;10.57;;;;;;;1.93;66.33;100234.59;4954121;28;20040;-70
2021/03/08 05:26:26;;;;;;;18.17;11.60;;;;;;;1.87;66.09;100245.03;4953735;28;20102;-70
2021/03/08 05:28:54;;;;;;;19.50;11.48;;;;;;;1.79;65.78;100246.81;4957244;28;20031;-69
2021/03/08 05:31:21;;;;;;;15.25;10.88;;;;;;;1.75;66.48;100239.91;4972720;28;20126;-68
2021/03/08 05:33:50;;;;;;;16.20;10.90;;;;;;;1.75;66.50;100234.69;4972874;28;20085;-69
2021/03/08 05:36:17;;;;;;;15.80;9.77;;;;;;;1.78;66.56;100245.97;4972610;28;20043;-70
2021/03/08 05:38:44;;;;;;;17.50;11.55;;;;;;;1.80;66.19;100243.34;4955050;28;20039;-70
2021/03/08 05:41:27;;;;;;;20.75;11.15;;;;;;;1.76;66.49;100246.84;4963146;28;20550;-70
2021/03/08 05:43:57;;;;;;;19.90;11.45;;;;;;;1.78;66.31;100245.97;4972274;28;20043;-70
2021/03/08 05:46:53;;;;;;;16.30;10.20;;;;;;;1.81;66.41;100248.53;4972586;28;20105;-69
2021/03/08 05:49:31;;;;;;;13.45;9.65;;;;;;;1.80;66.66;100244.22;4971489;28;20046;-70
2021/03/08 05:52:24;;;;;;;15.63;10.20;;;;;;;1.83;66.31;100251.13;4957346;28;20035;-69
2021/03/08 05:54:59;;;;;;;16.40;11.63;;;;;;;1.84;65.89;100253.69;4952998;28;20132;-69
2021/03/08 05:57:39;;;;;;;15.27;11.05;;;;;;;1.84;66.22;100253.69;4952347;28;20363;-70
2021/03/08 06:00:25;;;;;;;19.20;10.32;;;;;;;1.78;66.32;100258.94;4965594;28;20031;-70
2021/03/08 06:03:03;;;;;;;15.27;10.97;;;;;;;1.75;66.31;100258.09;4972752;28;20121;-70
2021/03/08 06:05:47;;;;;;;17.75;11.10;;;;;;;1.75;66.79;100258.09;4972057;28;20491;-70
2021/03/08 06:08:45;;;;;;;14.93;10.27;;;;;;;1.78;66.12;100258.94;4971157;28;20510;-70
2021/03/08 06:11:15;;;;;;;21.25;13.63;;;;;;;1.82;65.98;100252.88;4949630;28;20039;-69
2021/03/08 06:13:57;;;;;;;16.08;11.02;;;;;;;1.85;65.83;100263.25;4972225;28;20031;-69
2021/03/08 06:16:36;;;;;;;18.30;10.57;;;;;;;1.88;65.24;100259.75;4971562;28;20042;-69
2021/03/08 06:19:06;;;;;;;17.23;11.75;;;;;;;1.86;65.26;100266.69;4971522;28;20434;-70
2021/03/08 06:21:33;;;;;;;18.20;12.25;;;;;;;1.83;65.90;100262.38;4971591;28;20046;-70
2021/03/08 06:24:00;;;;;;;18.90;12.98;;;;;;;1.83;65.58;100270.19;4971772;28;20042;-70
2021/03/08 06:26:26;;;;;;;22.25;12.38;;;;;;;1.86;66.26;100269.31;4971892;28;20506;-69
2021/03/08 06:28:52;;;;;;;18.70;11.50;;;;;;;1.82;65.50;100265.88;4971642;28;20034;-70
2021/03/08 06:31:19;;;;;;;19.30;12.18;;;;;;;1.85;65.25;100270.19;4967577;28;20034;-71
2021/03/08 06:33:44;;;;;;;23.15;13.70;;;;;;;1.86;65.54;100272.75;4958112;28;20488;-70
2021/03/08 06:36:12;;;;;;;18.17;12.48;;;;;;;1.83;65.26;100271.94;4968469;28;20042;-70
2021/03/08 06:38:38;;;;;;;19.23;14.25;;;;;;;1.81;65.37;100271.94;4953426;28;20057;-70
2021/03/08 06:41:03;;;;;;;16.85;12.40;;;;;;;1.81;65.65;100274.53;4971565;28;20030;-70
2021/03/08 06:43:30;;;;;;;20.70;13.30;;;;;;;1.83;65.36;100279.72;4971249;28;20473;-70
2021/03/08 06:45:56;;;;;;;25.80;13.82;;;;;;;1.88;65.64;100280.56;4971844;28;20034;-70
2021/03/08 06:48:22;;;;;;;22.10;12.73;;;;;;;1.92;65.40;100285.75;4971008;28;20026;-69
2021/03/08 06:51:07;;;;;;;21.35;14.02;;;;;;;1.98;65.44;100278.78;4971147;28;20070;-70
2021/03/08 06:53:33;;;;;;;21.77;14.18;;;;;;;1.98;65.29;100287.44;4971495;28;20030;-69
2021/03/08 06:56:10;;;;;;;17.13;13.18;;;;;;;2.03;64.61;100292.59;4971280;28;20086;-71
2021/03/08 06:58:36;;;;;;;21.88;13.43;;;;;;;2.08;64.75;100296.03;4970990;28;20027;-71
2021/03/08 07:01:01;;;;;;;23.45;15.80;;;;;;;2.09;64.12;100298.63;4971092;28;20090;-69
2021/03/08 07:03:31;;;;;;;26.83;17.23;;;;;;;2.04;64.40;100304.72;4971017;28;20086;-70
2021/03/08 07:06:17;;;;;;;21.60;14.32;;;;;;;2.06;65.21;100309.03;4969707;28;20042;-71
2021/03/08 07:08:45;;;;;;;21.08;13.52;;;;;;;2.09;65.09;100313.34;4943817;29;20043;-72
2021/03/08 07:11:23;;;;;;;25.20;13.30;;;;;;;2.15;64.60;100316.78;4951303;29;20035;-71
2021/03/08 07:13:51;;;;;;;29.20;16.83;;;;;;;2.22;64.12;100314.16;4951572;29;20074;-72
2021/03/08 07:16:17;;;;;;;22.92;14.38;;;;;;;2.27;64.15;100312.41;4950589;29;20502;-71
2021/03/08 07:18:43;;;;;;;26.60;17.90;;;;;;;2.27;64.42;100317.59;4951205;29;20035;-69
2021/03/08 07:21:11;;;;;;;21.45;13.63;;;;;;;2.28;64.34;100320.16;4950558;28;20380;-69
2021/03/08 07:23:37;;;;;;;27.17;17.30;;;;;;;2.36;64.22;100322.72;4951387;29;20039;-69
2021/03/08 07:26:06;;;;;;;21.48;15.70;;;;;;;2.39;64.21;100327.91;4951296;29;20089;-68
2021/03/08 07:28:31;;;;;;;27.98;15.55;;;;;;;2.47;64.10;100318.31;4933350;29;20043;-69
2021/03/08 07:30:57;;;;;;;23.55;15.43;;;;;;;2.53;63.78;100318.25;4952325;29;20050;-70
2021/03/08 07:33:23;;;;;;;21.95;16.08;;;;;;;2.64;63.66;100323.38;4954299;28;20120;-69
2021/03/08 07:35:52;;;;;;;25.75;17.73;;;;;;;2.76;63.33;100333.69;4969466;28;20618;-71
2021/03/08 07:38:37;;;;;;;23.35;15.55;;;;;;;2.90;63.04;100328.34;4970255;28;20038;-69
2021/03/08 07:41:17;;;;;;;32.15;17.85;;;;;;;3.01;62.64;100333.47;4962400;28;20104;-69
2021/03/08 07:43:44;;;;;;;28.17;16.95;;;;;;;3.11;62.14;100329.91;4957815;28;20083;-71
2021/03/08 07:46:30;;;;;;;25.42;16.52;;;;;;;3.25;62.07;100337.59;4959310;28;20060;-70
2021/03/08 07:48:58;;;;;;;27.42;17.48;;;;;;;3.37;61.91;100337.44;4963831;28;20120;-71
2021/03/08 07:51:23;;;;;;;26.63;17.15;;;;;;;3.46;61.63;100340.81;4960387;28;20039;-70
2021/03/08 07:54:04;;;;;;;29.30;18.85;;;;;;;3.59;61.60;100340.69;4961406;28;20061;-71
2021/03/08 07:56:31;;;;;;;34.58;20.98;;;;;;;3.77;60.85;100341.34;4961110;28;20036;-70
2021/03/08 07:58:56;;;;;;;41.17;20.95;;;;;;;3.90;60.59;100337.69;4962092;28;20039;-70
2021/03/08 08:01:23;;;;;;;38.33;23.30;;;;;;;4.00;60.07;100335.81;4960245;28;20403;-70
2021/03/08 08:03:49;;;;;;;39.50;25.85;;;;;;;4.13;60.08;100328.66;4960277;28;20125;-71
2021/03/08 08:06:19;;;;;;;42.00;26.50;;;;;;;4.19;59.89;100328.59;4960227;28;20122;-71
2021/03/08 08:08:55;;;;;;;42.97;28.10;;;;;;;4.34;59.51;100330.13;4942402;28;20093;-71
2021/03/08 08:11:25;;;;;;;39.13;25.60;;;;;;;4.49;58.80;100327.28;4962280;28;20027;-70
2021/03/08 08:13:58;;;;;;;49.20;28.40;;;;;;;4.42;58.92;100325.63;4952398;28;20039;-70
2021/03/08 08:16:28;;;;;;;41.97;28.05;;;;;;;4.54;59.21;100335.03;4960385;28;20039;-71
2021/03/08 08:19:00;;;;;;;41.83;27.10;;;;;;;4.67;58.88;100331.31;4959243;28;20491;-71
2021/03/08 08:21:27;;;;;;;54.40;32.30;;;;;;;4.82;58.51;100323.22;4959884;28;20039;-71
2021/03/08 08:24:00;;;;;;;44.40;32.00;;;;;;;4.97;58.51;100326.47;4961189;28;20031;-72
2021/03/08 08:26:26;;;;;;;46.55;31.27;;;;;;;4.99;57.64;100322.94;4959831;28;20031;-73
2021/03/08 08:28:53;;;;;;;47.60;29.92;;;;;;;4.98;57.64;100321.22;4953770;28;20049;-74
2021/03/08 08:31:20;;;;;;;47.35;31.70;;;;;;;4.92;57.66;100310.88;4958819;28;20126;-72
2021/03/08 08:33:45;;;;;;;51.83;32.92;;;;;;;4.86;57.57;100311.00;4967050;28;20039;-71
2021/03/08 08:36:17;;;;;;;49.00;31.95;;;;;;;4.85;57.80;100314.47;4968149;28;20058;-70
2021/03/08 08:39:04;;;;;;;44.60;30.08;;;;;;;5.04;57.36;100315.03;4973767;28;20162;-72
2021/03/08 08:41:32;;;;;;;48.15;32.63;;;;;;;5.18;57.06;100315.63;4951756;28;20043;-72
2021/03/08 08:44:06;;;;;;;46.72;30.65;;;;;;;5.44;56.80;100312.53;4962477;28;20047;-70
2021/03/08 08:46:32;;;;;;;47.67;32.33;;;;;;;5.54;56.22;100307.97;4958895;28;20515;-70
2021/03/08 08:49:11;;;;;;;47.10;31.63;;;;;;;5.72;55.28;100314.59;4962168;28;20035;-71
2021/03/08 08:51:49;;;;;;;44.22;29.25;;;;;;;5.95;54.94;100307.13;4951706;28;20042;-67
2021/03/08 08:54:26;;;;;;;44.42;29.95;;;;;;;6.39;53.44;100317.50;4951440;28;20579;-68
2021/03/08 08:57:12;;;;;;;97.85;65.30;;;;;;;6.44;52.68;100306.00;4966624;28;20038;-68
2021/03/08 08:59:48;;;;;;;60.65;40.95;;;;;;;7.04;51.18;100306.28;4960891;28;20039;-68
2021/03/08 09:02:23;;;;;;;;;;;;;;;7.66;49.67;100308.06;4975896;28;20058;-67
2021/03/08 09:04:48;;;;;;;42.13;28.35;;;;;;;8.06;48.33;100305.09;4990074;28;19918;-68
2021/03/08 09:07:16;;;;;;;40.67;29.63;;;;;;;8.56;47.87;100294.78;4976530;28;20049;-69
2021/03/08 09:09:41;;;;;;;41.15;29.90;;;;;;;9.18;45.86;100296.22;4955796;28;20062;-68
2021/03/08 09:12:09;;;;;;;42.92;32.95;;;;;;;9.94;43.47;100302.19;4983087;28;20043;-68
2021/03/08 09:14:57;;;;;;;40.10;27.95;;;;;;;10.42;41.88;100289.81;4969858;28;20050;-68
2021/03/08 09:17:24;;;;;;;32.78;26.02;;;;;;;11.00;40.24;100295.31;4956152;28;20039;-68
2021/03/08 09:19:49;;;;;;;41.80;28.65;;;;;;;11.01;40.57;100291.75;4967672;28;20066;-68
2021/03/08 09:22:27;;;;;;;37.03;28.65;;;;;;;11.32;38.87;100290.38;4955728;28;20097;-69
2021/03/08 09:24:54;;;;;;;36.85;28.65;;;;;;;11.75;38.14;100281.41;4951174;28;20039;-70
2021/03/08 09:27:34;;;;;;;31.70;25.17;;;;;;;12.15;36.73;100282.19;4964646;28;20053;-70
2021/03/08 09:30:07;;;;;;;28.83;22.08;;;;;;;12.33;35.22;100277.84;4989730;28;20034;-70
2021/03/08 09:32:33;;;;;;;52.15;24.85;;;;;;;12.49;35.31;100277.94;4989461;28;20046;-69
2021/03/08 09:35:09;;;;;;;32.95;24.20;;;;;;;12.54;33.73;100272.41;4984586;28;20527;-68
2021/03/08 09:37:35;;;;;;;31.67;20.60;;;;;;;12.65;34.30;100268.31;4968942;28;20045;-70
2021/03/08 09:40:03;;;;;;;33.47;22.65;;;;;;;12.42;35.57;100271.22;4970613;28;20039;-69
2021/03/08 09:42:39;;;;;;;33.28;23.38;;;;;;;12.59;33.87;100280.97;4952372;28;20037;-69
2021/03/08 09:45:30;;;;;;;32.97;22.08;;;;;;;12.66;34.34;100283.22;4969974;28;20049;-68
2021/03/08 09:47:58;;;;;;;30.33;24.13;;;;;;;12.86;33.93;100274.28;4977722;28;20050;-69
2021/03/08 09:50:26;;;;;;;32.00;24.83;;;;;;;12.44;34.30;100282.59;4954123;28;20035;-69
2021/03/08 09:52:54;;;;;;;38.45;24.38;;;;;;;12.63;35.12;100280.75;4987070;28;20038;-68
2021/03/08 09:55:35;;;;;;;38.92;27.70;;;;;;;13.19;33.45;100283.22;4988448;28;20045;-69
2021/03/08 09:58:15;;;;;;;33.75;28.42;;;;;;;12.67;34.17;100277.03;4989087;28;20038;-69
2021/03/08 10:00:42;;;;;;;88.97;30.40;;;;;;;12.48;34.36;100288.56;4952952;28;20070;-69
2021/03/08 10:03:09;;;;;;;34.00;25.90;;;;;;;12.22;35.27;100278.34;4950460;28;20050;-69
2021/03/08 10:05:43;;;;;;;34.50;24.52;;;;;;;11.65;36.19;100282.75;4985948;28;20038;-69
2021/03/08 10:08:13;;;;;;;29.25;22.55;;;;;;;11.49;36.86;100282.56;4988725;28;20418;-71
2021/03/08 10:10:42;;;;;;;30.55;25.90;;;;;;;10.36;39.04;100290.06;4988511;28;20421;-72
2021/03/08 10:13:07;;;;;;;29.92;22.90;;;;;;;10.13;40.17;100291.81;4988791;28;20085;-71
2021/03/08 10:15:45;;;;;;;33.60;22.17;;;;;;;10.52;39.01;100285.88;4971890;28;20046;-71
2021/03/08 10:18:13;;;;;;;36.10;23.58;;;;;;;10.75;39.40;100290.19;4989577;28;20042;-71
2021/03/08 10:20:44;;;;;;;37.08;27.42;;;;;;;10.53;39.04;100292.88;4989075;28;20042;-71
2021/03/08 10:23:22;;;;;;;29.88;21.85;;;;;;;9.89;40.23;100286.59;4982045;28;20050;-69
2021/03/08 10:25:47;;;;;;;40.78;23.90;;;;;;;9.54;41.90;100289.66;4949503;28;20087;-71
2021/03/08 10:28:14;;;;;;;33.53;24.08;;;;;;;9.33;41.64;100294.81;4955888;28;20046;-72
2021/03/08 10:30:39;;;;;;;30.02;22.08;;;;;;;9.70;41.49;100292.56;4960046;28;20494;-71
2021/03/08 10:33:08;;;;;;;38.15;27.05;;;;;;;9.60;41.14;100289.47;4948713;28;20035;-71
2021/03/08 10:35:37;;;;;;;38.17;22.35;;;;;;;8.91;42.20;100291.88;4940023;29;20047;-69
2021/03/08 10:38:03;;;;;;;30.27;23.38;;;;;;;8.37;44.26;100294.50;4965336;28;20046;-71
2021/03/08 10:40:29;;;;;;;34.58;24.08;;;;;;;7.98;44.96;100291.38;4952344;28;20054;-71
2021/03/08 10:42:57;;;;;;;36.13;24.77;;;;;;;8.31;44.81;100286.81;4961621;28;20066;-72
2021/03/08 10:45:23;;;;;;;27.40;20.80;;;;;;;8.46;43.31;100288.13;4969106;28;20038;-70
2021/03/08 10:48:12;;;;;;;33.95;21.73;;;;;;;8.72;43.28;100279.38;4955844;28;20044;-72
2021/03/08 10:50:50;;;;;;;27.92;18.20;;;;;;;8.93;43.26;100288.28;4951060;28;20491;-71
2021/03/08 10:53:18;;;;;;;33.72;23.35;;;;;;;8.85;42.99;100274.56;4951317;28;20710;-74
2021/03/08 10:55:44;;;;;;;31.17;22.92;;;;;;;8.99;42.75;100281.97;4950157;28;20043;-71
2021/03/08 10:58:10;;;;;;;31.98;20.50;;;;;;;8.92;43.25;100281.31;4949398;28;20090;-70
2021/03/08 11:00:37;;;;;;;29.60;21.02;;;;;;;8.89;43.18;100286.69;4949597;28;20043;-71
2021/03/08 11:03:03;;;;;;;34.78;22.10;;;;;;;8.93;42.83;100287.44;4949918;28;20046;-71
2021/03/08 11:05:29;;;;;;;32.03;20.60;;;;;;;8.52;43.34;100289.72;4932044;29;20395;-72
2021/03/08 11:07:59;;;;;;;24.52;17.63;;;;;;;8.34;43.84;100292.00;4931316;28;20035;-71
2021/03/08 11:10:34;;;;;;;29.27;18.10;;;;;;;7.92;44.93;100296.78;4954756;28;20045;-71
2021/03/08 11:13:01;;;;;;;31.77;18.63;;;;;;;7.59;46.01;100293.41;4956126;28;20042;-71
2021/03/08 11:15:27;;;;;;;30.42;20.27;;;;;;;7.62;45.97;100291.53;4965004;28;20097;-71
2021/03/08 11:17:52;;;;;;;37.28;18.30;;;;;;;7.50;46.28;100286.63;4941996;28;20035;-70
2021/03/08 11:20:22;;;;;;;27.30;16.58;;;;;;;7.57;46.16;100287.34;4949862;28;20039;-71
2021/03/08 11:22:56;;;;;;;30.13;18.00;;;;;;;7.72;45.96;100287.72;4959331;28;20495;-70
2021/03/08 11:25:26;;;;;;;26.23;16.88;;;;;;;7.64;45.36;100291.50;4958226;28;20039;-70
2021/03/08 11:27:51;;;;;;;31.92;19.33;;;;;;;7.59;46.17;100293.41;4962796;28;20481;-70
2021/03/08 11:30:17;;;;;;;33.90;18.83;;;;;;;7.63;46.40;100288.03;4964938;28;20071;-71